Data for 10/19/2013

Time Sea-Level Adjusted Pressure Absolute Pressure Temperature Relative Humidity Dew Point   
(mb) (inHg) (mb) (inHg) (C) (F) (%) (C) (F)
00:05 1020 30.12 849 25.07 3 37.4 56 -4.8 23.3
00:10 1020 30.12 849 25.07 3 37.4 57 -4.6 23.7
00:15 1020 30.12 849 25.07 3 37.4 58 -4.5 23.9
00:20 1020 30.12 849 25.07 3 37.4 58 -4.5 24
00:25 1020 30.12 849 25.07 2.8 37.1 59 -4.5 23.9
00:30 1020 30.12 849 25.07 2.6 36.7 60 -4.4 24.1
00:35 1020 30.12 849 25.07 2.5 36.5 60 -4.5 23.9
00:40 1020 30.12 849 25.07 2.6 36.8 60 -4.3 24.2
00:45 1020 30.12 849 25.07 2.5 36.5 60 -4.5 23.8
00:50 1020 30.12 849 25.07 2.4 36.3 62 -4.2 24.4
00:55 1020 30.12 849 25.07 2.2 36 61 -4.6 23.7
01:00 1020 30.12 849 25.07 2.3 36.1 60 -4.7 23.6
01:05 1020 30.12 849 25.07 2.2 35.9 60 -4.8 23.4
01:10 1020 30.12 849 25.07 2.7 36.8 58 -4.9 23.2
01:15 1020 30.12 849 25.07 2.8 37 57 -4.9 23.2
01:20 1020 30.12 849 25.07 2.7 36.8 58 -4.8 23.3
01:25 1020 30.12 849 25.07 2.7 36.9 58 -4.7 23.5
01:30 1019 30.09 849 25.07 2.7 36.9 59 -4.5 23.9
01:35 1019 30.09 849 25.07 2.6 36.6 60 -4.5 23.9
01:40 1019 30.09 849 25.07 2.7 36.8 58 -4.7 23.6
01:45 1019 30.09 849 25.07 2.6 36.7 59 -4.5 23.9
01:50 1019 30.09 849 25.07 2.6 36.7 59 -4.7 23.5
01:55 1019 30.09 849 25.07 2.5 36.5 59 -4.6 23.7
02:00 1019 30.09 849 25.07 2.2 35.9 61 -4.6 23.8
02:05 1019 30.09 849 25.07 1.9 35.3 62 -4.6 23.7
02:10 1019 30.09 848 25.04 1.8 35.2 62 -4.7 23.5
02:15 1019 30.09 848 25.04 1.7 35 62 -4.7 23.5
02:20 1019 30.09 848 25.04 1.6 34.9 63 -4.7 23.6
02:25 1019 30.09 848 25.04 1.4 34.6 64 -4.6 23.8
02:30 1019 30.09 848 25.04 1.3 34.3 64 -4.8 23.4
02:35 1019 30.09 848 25.04 1.2 34.2 65 -4.7 23.5
02:40 1019 30.09 848 25.04 1.2 34.2 64 -4.8 23.3
02:45 1019 30.09 848 25.04 1.3 34.4 64 -4.7 23.5
02:50 1019 30.09 848 25.04 1.3 34.4 63 -5 23
02:55 1019 30.09 848 25.04 1.4 34.5 62 -5 23
03:00 1019 30.09 849 25.07 1.3 34.3 63 -5 23
03:05 1019 30.09 849 25.07 1.1 34 64 -5 22.9
03:10 1019 30.09 849 25.07 0.9 33.6 66 -4.7 23.5
03:15 1019 30.09 849 25.07 0.6 33 67 -4.9 23.1
03:20 1019 30.09 849 25.07 0.6 33.1 63 -5.5 22.1
03:25 1019 30.09 849 25.07 1.1 34 62 -5.4 22.4
03:30 1019 30.09 849 25.07 1.1 34 63 -5 22.9
03:35 1020 30.12 849 25.07 1.2 34.1 61 -5.5 22.2
03:40 1020 30.12 849 25.07 1.2 34.1 64 -5 23.1
03:45 1020 30.12 849 25.07 0.8 33.5 64 -5.2 22.7
03:50 1020 30.12 849 25.07 0.6 33.1 66 -5.1 22.8
03:55 1020 30.12 849 25.07 0.5 33 65 -5.3 22.5
04:00 1020 30.12 849 25.07 1.1 33.9 63 -5.2 22.7
04:05 1020 30.12 849 25.07 1 33.9 63 -5.3 22.5
04:10 1020 30.12 849 25.07 1.1 34.1 63 -5.1 22.7
04:15 1020 30.12 849 25.07 1 33.7 65 -5 23.1
04:20 1020 30.12 849 25.07 0.7 33.3 65 -5.2 22.7
04:25 1020 30.12 849 25.07 0.8 33.5 65 -5 23.1
04:30 1020 30.12 849 25.07 0.9 33.7 63 -5.2 22.6
04:35 1020 30.12 849 25.07 1.2 34.2 62 -5.3 22.4
04:40 1020 30.12 849 25.07 1.5 34.7 61 -5.1 22.8
04:45 1020 30.12 849 25.07 1.9 35.3 60 -5.2 22.7
04:50 1020 30.12 849 25.07 2.1 35.8 58 -5.3 22.4
04:55 1020 30.12 849 25.07 2.2 36 58 -5.3 22.5
05:00 1020 30.12 849 25.07 1.9 35.4 61 -4.9 23.2
05:05 1020 30.12 849 25.07 1.8 35.2 59 -5.3 22.4
05:10 1020 30.12 849 25.07 1.7 35.1 61 -5 22.9
05:15 1020 30.12 849 25.07 1.5 34.7 62 -4.9 23.1
05:20 1020 30.12 849 25.07 1 33.8 64 -5.1 22.9
05:25 1020 30.12 849 25.07 0.8 33.5 63 -5.4 22.3
05:30 1020 30.12 849 25.07 0.9 33.7 64 -5 22.9
05:35 1020 30.12 849 25.07 1 33.7 62 -5.4 22.2
05:40 1020 30.12 849 25.07 1 33.8 64 -5 23
05:45 1020 30.12 849 25.07 0.8 33.5 62 -5.6 21.8
05:50 1020 30.12 849 25.07 1.2 34.1 63 -5.2 22.7
05:55 1020 30.12 849 25.07 1.1 34.1 63 -5.1 22.8
06:00 1020 30.12 849 25.07 0.8 33.5 64 -5.2 22.6
06:05 1020 30.12 849 25.07 0.9 33.7 63 -5.4 22.3
06:10 1020 30.12 849 25.07 1.1 33.9 64 -5 23
06:15 1020 30.12 849 25.07 0.9 33.6 64 -5.1 22.8
06:20 1020 30.12 849 25.07 1 33.8 65 -4.9 23.2
06:25 1020 30.12 849 25.07 0.9 33.5 66 -4.9 23.3
06:30 1020 30.12 849 25.07 0.6 33.2 66 -5.1 22.9
06:35 1020 30.12 849 25.07 0.8 33.5 64 -5.2 22.7
06:40 1020 30.12 849 25.07 1 33.7 65 -5 23
06:45 1020 30.12 849 25.07 0.7 33.3 66 -4.9 23.1
06:50 1020 30.12 849 25.07 0.8 33.4 65 -5.1 22.9
06:55 1020 30.12 849 25.07 0.9 33.6 65 -5 23
07:00 1020 30.12 849 25.07 0.8 33.4 65 -5 23
07:05 1020 30.12 849 25.07 0.8 33.4 65 -5.1 22.8
07:10 1020 30.12 849 25.07 0.9 33.5 65 -5.1 22.8
07:15 1020 30.12 849 25.07 0.9 33.6 65 -4.9 23.2
07:20 1020 30.12 849 25.07 0.8 33.5 66 -4.9 23.2
07:25 1020 30.12 849 25.07 0.7 33.3 66 -4.9 23.2
07:30 1020 30.12 849 25.07 0.7 33.3 67 -4.8 23.4
07:35 1020 30.12 849 25.07 0.7 33.2 66 -4.9 23.2
07:40 1020 30.12 849 25.07 0.7 33.3 67 -4.7 23.5
07:45 1020 30.12 849 25.07 0.8 33.4 66 -4.8 23.4
07:50 1020 30.12 849 25.07 1 33.7 64 -5 22.9
07:55 1020 30.12 849 25.07 1.2 34.2 63 -5 23
08:00 1020 30.12 849 25.07 1.2 34.2 64 -4.9 23.3
08:05 1020 30.12 849 25.07 1.5 34.6 63 -4.8 23.3
08:10 1020 30.12 849 25.07 1.8 35.2 63 -4.6 23.8
08:15 1020 30.12 849 25.07 2 35.6 62 -4.6 23.7
08:20 1020 30.12 849 25.07 2.4 36.3 61 -4.4 24.1
08:25 1020 30.12 849 25.07 2.4 36.4 61 -4.4 24.1
08:30 1020 30.12 849 25.07 2.6 36.7 61 -4.1 24.6
08:35 1020 30.12 849 25.07 2.8 37.1 60 -4.1 24.6
08:40 1020 30.12 849 25.07 3.2 37.7 59 -4.1 24.6
08:45 1020 30.12 849 25.07 3.4 38.1 58 -4 24.8
08:50 1020 30.12 849 25.07 3.9 39 56 -4.1 24.7
08:55 1020 30.12 849 25.07 4.4 39.9 55 -4 24.8
09:00 1020 30.12 849 25.07 4.5 40.2 55 -3.8 25.2
09:05 1020 30.12 849 25.07 4.6 40.4 55 -3.7 25.4
09:10 1020 30.12 849 25.07 5.1 41.2 53 -3.6 25.5
09:15 1020 30.12 849 25.07 5.8 42.4 50 -4 24.9
09:20 1020 30.12 849 25.07 6.3 43.3 49 -3.5 25.6
09:25 1020 30.12 849 25.07 6.8 44.2 45 -4.2 24.4
09:30 1020 30.12 849 25.07 7.2 45 46 -3.7 25.3
09:35 1020 30.12 849 25.07 7.3 45.1 45 -3.9 25
09:40 1020 30.12 849 25.07 6.7 44.1 47 -3.9 25
09:45 1020 30.12 849 25.07 6.9 44.4 45 -4.1 24.6
09:50 1020 30.12 849 25.07 7 44.5 46 -3.9 24.9
09:55 1020 30.12 849 25.07 7.3 45.1 44 -4.1 24.6
10:00 1020 30.12 849 25.07 7.7 45.9 44 -3.7 25.4
10:05 1020 30.12 849 25.07 7.8 46 43 -3.9 25
10:10 1020 30.12 849 25.07 8.4 47 42 -3.9 24.9
10:15 1020 30.12 849 25.07 8.9 48 40 -3.8 25.1
10:20 1020 30.12 849 25.07 9.3 48.7 39 -4 24.8
10:25 1020 30.12 849 25.07 9.3 48.8 38 -4.2 24.5
10:30 1020 30.12 849 25.07 9.1 48.4 39 -4.1 24.5
10:35 1020 30.12 849 25.07 9.1 48.3 40 -3.8 25.1
10:40 1019 30.09 849 25.07 9 48.3 41 -3.3 26
10:45 1019 30.09 849 25.07 9.2 48.5 40 -3.6 25.6
10:50 1019 30.09 849 25.07 9.4 49 40 -3.3 26.1
10:55 1019 30.09 849 25.07 9.6 49.2 41 -3.1 26.4
11:00 1019 30.09 849 25.07 9.8 49.6 39 -3.3 26
11:05 1019 30.09 849 25.07 10.2 50.4 39 -3 26.6
11:10 1019 30.09 848 25.04 10.5 50.9 39 -3 26.7
11:15 1019 30.09 848 25.04 10.9 51.7 36 -3.4 25.8
11:20 1019 30.09 848 25.04 11 51.8 35 -3.9 24.9
11:25 1019 30.09 848 25.04 10.6 51.1 38 -3.2 26.3
11:30 1019 30.09 848 25.04 10.9 51.6 35 -3.9 25
11:35 1019 30.09 848 25.04 11.7 53 32 -4.3 24.3
11:40 1019 30.09 848 25.04 11.6 52.8 33 -4.1 24.6
11:45 1019 30.09 848 25.04 11.7 53 32 -4.3 24.2
11:50 1019 30.09 848 25.04 12.4 54.3 32 -4 24.8
11:55 1019 30.09 848 25.04 12.2 53.9 31 -4.5 23.9
12:00 1019 30.09 848 25.04 11.7 53.1 32 -4.6 23.8
12:05 1019 30.09 848 25.04 12.1 53.7 32 -4 24.8
12:10 1019 30.09 848 25.04 11.7 53.1 31 -4.7 23.5
12:15 1019 30.09 848 25.04 11.8 53.2 31 -4.8 23.4
12:20 1019 30.09 848 25.04 12.1 53.8 31 -4.6 23.7
12:25 1019 30.09 848 25.04 13 55.5 29 -4.7 23.5
12:30 1018 30.06 848 25.04 14 57.1 27 -4.8 23.4
12:35 1018 30.06 848 25.04 14.5 58.1 27 -4.3 24.3
12:40 1018 30.06 848 25.04 14.1 57.4 27 -4.7 23.5
12:45 1018 30.06 848 25.04 14.4 57.9 25 -5.1 22.8
12:50 1018 30.06 847 25.01 14.6 58.2 26 -4.7 23.6
12:55 1018 30.06 847 25.01 14.3 57.7 26 -5.2 22.7
13:00 1018 30.06 847 25.01 14.3 57.8 26 -4.7 23.6
13:05 1018 30.06 847 25.01 14.3 57.8 26 -4.8 23.4
13:10 1018 30.06 847 25.01 14.6 58.3 26 -4.6 23.7
13:15 1018 30.06 847 25.01 14.8 58.6 26 -4.5 24
13:20 1018 30.06 847 25.01 14.9 58.7 26 -4.4 24.1
13:25 1018 30.06 847 25.01 15.2 59.4 26 -4.3 24.3
13:30 1018 30.06 847 25.01 15 59.1 26 -4.4 24.1
13:35 1018 30.06 847 25.01 15.2 59.4 25 -4.4 24.1
13:40 1018 30.06 847 25.01 15.2 59.4 26 -4 24.7
13:45 1018 30.06 847 25.01 15.6 60.2 26 -3.6 25.5
13:50 1018 30.06 847 25.01 15.5 60 26 -4 24.9
13:55 1018 30.06 847 25.01 15.3 59.6 25 -4.5 24
14:00 1018 30.06 847 25.01 15.4 59.6 24 -5.1 22.8
14:05 1018 30.06 847 25.01 15.4 59.6 23 -5.3 22.4
14:10 1017 30.03 847 25.01 16.1 60.9 22 -5.7 21.7
14:15 1017 30.03 847 25.01 16.3 61.3 21 -6 21.2
14:20 1017 30.03 846 24.98 16 60.8 22 -5.8 21.6
14:25 1017 30.03 846 24.98 15.7 60.3 21 -6.4 20.6
14:30 1017 30.03 846 24.98 15.4 59.8 23 -5.7 21.8
14:35 1017 30.03 846 24.98 15.5 59.8 23 -5.6 21.9
14:40 1017 30.03 846 24.98 15.5 59.9 22 -5.9 21.3
14:45 1017 30.03 846 24.98 15.3 59.5 23 -5.7 21.8
14:50 1017 30.03 846 24.98 15.2 59.4 22 -6.1 21.1
14:55 1017 30.03 846 24.98 15 59 23 -6 21.3
15:00 1017 30.03 846 24.98 14.9 58.8 23 -6 21.2
15:05 1017 30.03 846 24.98 14.9 58.8 24 -5.3 22.5
15:10 1017 30.03 846 24.98 14.7 58.5 25 -5.3 22.5
15:15 1017 30.03 846 24.98 14.5 58.2 25 -5.2 22.7
15:20 1017 30.03 846 24.98 14.4 57.9 26 -4.9 23.2
15:25 1017 30.03 846 24.98 14.4 57.8 26 -4.8 23.3
15:30 1017 30.03 846 24.98 14.3 57.8 26 -4.8 23.4
15:35 1017 30.03 846 24.98 14.2 57.6 27 -4.7 23.6
15:40 1017 30.03 846 24.98 14 57.3 27 -4.6 23.7
15:45 1017 30.03 846 24.98 13.9 57.1 28 -4.4 24.1
15:50 1017 30.03 846 24.98 13.9 56.9 28 -4.5 23.9
15:55 1017 30.03 846 24.98 13.8 56.8 28 -4.5 23.9
16:00 1017 30.03 846 24.98 13.6 56.6 28 -4.5 23.9
16:05 1017 30.03 846 24.98 13.5 56.4 28 -4.3 24.2
16:10 1017 30.03 846 24.98 13.4 56.2 29 -4.4 24.2
16:15 1017 30.03 846 24.98 13.4 56.1 29 -4.4 24.1
16:20 1017 30.03 846 24.98 13.3 56 29 -4.1 24.7
16:25 1017 30.03 846 24.98 13.2 55.8 29 -4.3 24.2
16:30 1017 30.03 846 24.98 13.2 55.7 30 -4 24.9
16:35 1017 30.03 846 24.98 13.1 55.6 31 -3.6 25.5
16:40 1017 30.03 846 24.98 12.9 55.3 31 -3.8 25.2
16:45 1017 30.03 846 24.98 12.8 55.1 31 -3.8 25.2
16:50 1017 30.03 846 24.98 12.8 55 32 -3.6 25.4
16:55 1016 30 846 24.98 12.7 54.8 30 -4.3 24.2
17:00 1016 30 846 24.98 12.8 55 30 -4.2 24.5
17:05 1016 30 846 24.98 12.8 55 30 -4.1 24.6
17:10 1016 30 846 24.98 12.7 54.9 31 -4.1 24.7
17:15 1016 30 846 24.98 12.6 54.8 31 -3.9 25
17:20 1016 30 846 24.98 12.5 54.5 32 -3.7 25.3
17:25 1016 30 846 24.98 12.4 54.3 32 -3.9 25
17:30 1016 30 845 24.95 12.3 54.1 32 -3.7 25.4
17:35 1016 30 845 24.95 12.1 53.8 33 -3.7 25.3
17:40 1016 30 845 24.95 12 53.5 32 -4.1 24.6
17:45 1016 30 845 24.95 12 53.6 33 -3.9 25.1
17:50 1016 30 845 24.95 11.9 53.5 34 -3.6 25.6
17:55 1016 30 845 24.95 11.7 53.1 34 -3.6 25.5
18:00 1016 30 845 24.95 11.7 53 33 -4 24.8
18:05 1016 30 845 24.95 11.8 53.2 33 -3.9 24.9
18:10 1016 30 845 24.95 11.8 53.2 31 -4.7 23.5
18:15 1016 30 845 24.95 12.4 54.4 29 -5 23
18:20 1016 30 845 24.95 13.1 55.6 27 -5.5 22.2
18:25 1016 30 845 24.95 13.5 56.3 26 -5.3 22.4
18:30 1016 30 845 24.95 13.8 56.8 26 -5.5 22
18:35 1016 30 846 24.98 13.9 56.9 26 -5.3 22.5
18:40 1017 30.03 846 24.98 13.7 56.7 26 -5.2 22.7
18:45 1017 30.03 846 24.98 13.6 56.4 27 -5.1 22.9
18:50 1016 30 846 24.98 13.5 56.3 27 -5.3 22.5
18:55 1017 30.03 846 24.98 13.6 56.5 26 -5.4 22.3
19:00 1017 30.03 846 24.98 13.7 56.6 27 -4.9 23.2
19:05 1017 30.03 846 24.98 13.4 56.1 28 -4.9 23.2
19:10 1017 30.03 846 24.98 13.3 55.9 28 -4.9 23.2
19:15 1017 30.03 846 24.98 13.2 55.8 28 -4.9 23.2
19:20 1017 30.03 846 24.98 13.2 55.8 29 -4.4 24
19:25 1016 30 846 24.98 13 55.5 29 -4.7 23.5
19:30 1017 30.03 846 24.98 13 55.5 28 -4.8 23.4
19:35 1017 30.03 846 24.98 13 55.4 28 -4.8 23.3
19:40 1016 30 846 24.98 13.1 55.6 27 -5.2 22.6
19:45 1016 30 846 24.98 13.2 55.8 28 -5 23
19:50 1016 30 846 24.98 13.2 55.8 27 -5.3 22.4
19:55 1016 30 846 24.98 13.3 55.9 27 -5.1 22.8
20:00 1016 30 845 24.95 13.2 55.7 27 -5.4 22.4
20:05 1016 30 845 24.95 13.2 55.7 27 -5.1 22.7
20:10 1016 30 845 24.95 13.1 55.5 28 -5.2 22.6
20:15 1016 30 845 24.95 13 55.4 28 -5.1 22.8
20:20 1016 30 845 24.95 12.8 55.1 28 -5 23.1
20:25 1016 30 845 24.95 12.7 54.8 29 -4.8 23.3
20:30 1016 30 845 24.95 12.5 54.5 30 -4.7 23.6
20:35 1016 30 845 24.95 12.4 54.3 31 -4.3 24.2
20:40 1016 30 845 24.95 12.1 53.8 32 -3.9 25
20:45 1016 30 846 24.98 11.7 53.1 34 -3.6 25.5
20:50 1016 30 846 24.98 11.3 52.4 35 -3.4 25.9
20:55 1016 30 846 24.98 11.1 51.9 36 -3.5 25.8
21:00 1017 30.03 846 24.98 11.1 51.9 36 -3.6 25.6
21:05 1017 30.03 846 24.98 11.1 52 36 -3.4 25.9
21:10 1017 30.03 846 24.98 11 51.8 37 -3.3 26.1
21:15 1017 30.03 846 24.98 11 51.8 35 -3.9 25
21:20 1017 30.03 846 24.98 11 51.8 36 -3.5 25.8
21:25 1017 30.03 846 24.98 10.8 51.5 36 -3.4 25.8
21:30 1017 30.03 846 24.98 10.7 51.3 37 -3.3 26
21:35 1017 30.03 846 24.98 10.7 51.2 38 -3.2 26.2
21:40 1017 30.03 846 24.98 10.5 50.9 38 -3.1 26.5
21:45 1017 30.03 846 24.98 10.3 50.5 38 -3.2 26.2
21:50 1017 30.03 846 24.98 10.3 50.5 36 -4.2 24.5
21:55 1017 30.03 846 24.98 10.5 50.9 34 -4.7 23.6
22:00 1017 30.03 847 25.01 10.6 51.1 34 -4.4 24.1
22:05 1017 30.03 847 25.01 10.6 51 35 -4.3 24.2
22:10 1017 30.03 847 25.01 10.4 50.7 35 -4.4 24.1
22:15 1018 30.06 847 25.01 10.3 50.5 35 -4.3 24.2
22:20 1018 30.06 847 25.01 10.1 50.1 37 -3.9 25
22:25 1018 30.06 847 25.01 9.8 49.6 38 -3.9 25
22:30 1018 30.06 847 25.01 9.7 49.4 38 -3.9 24.9
22:35 1018 30.06 847 25.01 9.6 49.3 38 -4 24.9
22:40 1018 30.06 847 25.01 9.5 49.1 38 -4 24.7
22:45 1018 30.06 847 25.01 9.5 49 38 -4 24.8
22:50 1018 30.06 847 25.01 9.4 48.9 38 -4.1 24.6
22:55 1018 30.06 847 25.01 9.3 48.7 38 -4.3 24.2
23:00 1018 30.06 847 25.01 9.2 48.6 39 -4.2 24.5
23:05 1018 30.06 847 25.01 9.2 48.5 38 -4.3 24.2
23:10 1018 30.06 847 25.01 9.1 48.3 39 -4.1 24.6
23:15 1018 30.06 847 25.01 9 48.2 39 -4.3 24.3
23:20 1018 30.06 847 25.01 8.9 48.1 39 -4.1 24.5
23:25 1018 30.06 847 25.01 8.9 48 39 -4.2 24.4
23:30 1018 30.06 847 25.01 8.9 47.9 39 -4.4 24.1
23:35 1018 30.06 847 25.01 8.8 47.9 39 -4.3 24.2
23:40 1018 30.06 847 25.01 8.8 47.8 39 -4.2 24.4
23:45 1018 30.06 847 25.01 8.8 47.8 39 -4.3 24.2
23:50 1018 30.06 848 25.04 8.7 47.6 40 -4.2 24.4
23:55 1018 30.06 848 25.04 8.6 47.5 41 -4 24.8
24:00 1018 30.06 848 25.04 8.5 47.4 41 -3.9 25